sensor_id;sensor_type;location;lat;lon;timestamp;pressure;altitude;pressure_sealevel;temperature;humidity
49104;BME280;34915;52.926;11.116;2023-07-29T00:01:50;100627.75;;;20.34;74.83
49104;BME280;34915;52.926;11.116;2023-07-29T00:04:16;100622.53;;;20.36;74.72
49104;BME280;34915;52.926;11.116;2023-07-29T00:06:42;100613.28;;;20.39;74.91
49104;BME280;34915;52.926;11.116;2023-07-29T00:09:08;100619.84;;;20.33;74.89
49104;BME280;34915;52.926;11.116;2023-07-29T00:11:33;100616.88;;;20.40;74.97
49104;BME280;34915;52.926;11.116;2023-07-29T00:14:00;100613.38;;;20.48;74.97
49104;BME280;34915;52.926;11.116;2023-07-29T00:16:26;100615.72;;;20.50;74.41
49104;BME280;34915;52.926;11.116;2023-07-29T00:18:51;100618.41;;;20.53;74.66
49104;BME280;34915;52.926;11.116;2023-07-29T00:21:17;100615.59;;;20.53;74.29
49104;BME280;34915;52.926;11.116;2023-07-29T00:23:43;100614.69;;;20.57;74.18
49104;BME280;34915;52.926;11.116;2023-07-29T00:26:08;100608.47;;;20.52;73.95
49104;BME280;34915;52.926;11.116;2023-07-29T00:28:34;100594.41;;;20.56;74.30
49104;BME280;34915;52.926;11.116;2023-07-29T00:30:59;100594.28;;;20.60;73.97
49104;BME280;34915;52.926;11.116;2023-07-29T00:33:25;100574.56;;;20.54;74.13
49104;BME280;34915;52.926;11.116;2023-07-29T00:35:50;100582.03;;;20.57;73.90
49104;BME280;34915;52.926;11.116;2023-07-29T00:38:16;100579.59;;;20.46;74.56
49104;BME280;34915;52.926;11.116;2023-07-29T00:40:43;100573.72;;;20.06;75.52
49104;BME280;34915;52.926;11.116;2023-07-29T00:43:08;100567.28;;;19.84;76.31
49104;BME280;34915;52.926;11.116;2023-07-29T00:45:34;100567.38;;;19.80;76.81
49104;BME280;34915;52.926;11.116;2023-07-29T00:48:01;100567.88;;;20.39;74.60
49104;BME280;34915;52.926;11.116;2023-07-29T00:50:28;100566.44;;;20.47;73.86
49104;BME280;34915;52.926;11.116;2023-07-29T00:52:54;100560.94;;;20.56;73.07
49104;BME280;34915;52.926;11.116;2023-07-29T00:55:20;100561.16;;;20.62;73.40
49104;BME280;34915;52.926;11.116;2023-07-29T00:57:46;100558.53;;;20.45;73.47
49104;BME280;34915;52.926;11.116;2023-07-29T01:00:14;100553.84;;;20.17;74.90
49104;BME280;34915;52.926;11.116;2023-07-29T01:02:42;100558.09;;;20.47;73.90
49104;BME280;34915;52.926;11.116;2023-07-29T01:05:07;100549.22;;;19.76;75.81
49104;BME280;34915;52.926;11.116;2023-07-29T01:07:49;100545.91;;;19.39;77.29
49104;BME280;34915;52.926;11.116;2023-07-29T01:17:57;100539.78;;;19.32;77.02
49104;BME280;34915;52.926;11.116;2023-07-29T01:20:25;100542.13;;;19.33;77.03
49104;BME280;34915;52.926;11.116;2023-07-29T01:22:51;100549.56;;;19.23;76.78
49104;BME280;34915;52.926;11.116;2023-07-29T01:25:17;100550.00;;;19.22;77.08
49104;BME280;34915;52.926;11.116;2023-07-29T01:27:45;100544.00;;;19.23;77.19
49104;BME280;34915;52.926;11.116;2023-07-29T01:30:11;100541.34;;;19.20;77.11
49104;BME280;34915;52.926;11.116;2023-07-29T01:32:44;100541.44;;;19.16;76.78
49104;BME280;34915;52.926;11.116;2023-07-29T01:35:36;100544.31;;;19.13;77.48
49104;BME280;34915;52.926;11.116;2023-07-29T01:38:10;100539.72;;;19.06;77.00
49104;BME280;34915;52.926;11.116;2023-07-29T01:40:39;100554.94;;;19.02;77.20
49104;BME280;34915;52.926;11.116;2023-07-29T01:43:06;100559.06;;;19.39;76.10
49104;BME280;34915;52.926;11.116;2023-07-29T01:45:34;100549.22;;;19.21;76.55
49104;BME280;34915;52.926;11.116;2023-07-29T01:48:04;100549.53;;;19.11;77.91
49104;BME280;34915;52.926;11.116;2023-07-29T01:50:30;100553.53;;;19.10;77.48
49104;BME280;34915;52.926;11.116;2023-07-29T01:52:57;100547.44;;;19.15;77.68
49104;BME280;34915;52.926;11.116;2023-07-29T01:55:23;100539.19;;;19.11;76.71
49104;BME280;34915;52.926;11.116;2023-07-29T01:57:49;100534.94;;;19.07;76.83
49104;BME280;34915;52.926;11.116;2023-07-29T02:00:15;100542.41;;;19.10;77.16
49104;BME280;34915;52.926;11.116;2023-07-29T02:02:41;100538.34;;;18.98;76.63
49104;BME280;34915;52.926;11.116;2023-07-29T02:05:06;100544.34;;;18.96;77.11
49104;BME280;34915;52.926;11.116;2023-07-29T02:07:32;100540.03;;;18.95;77.41
49104;BME280;34915;52.926;11.116;2023-07-29T02:09:58;100534.47;;;18.95;77.02
49104;BME280;34915;52.926;11.116;2023-07-29T02:12:23;100526.31;;;18.88;77.39
49104;BME280;34915;52.926;11.116;2023-07-29T02:14:51;100533.00;;;18.91;77.02
49104;BME280;34915;52.926;11.116;2023-07-29T02:17:17;100533.09;;;18.87;77.14
49104;BME280;34915;52.926;11.116;2023-07-29T02:19:43;100530.84;;;18.82;77.35
49104;BME280;34915;52.926;11.116;2023-07-29T02:22:10;100525.75;;;18.81;77.20
49104;BME280;34915;52.926;11.116;2023-07-29T02:24:38;100528.53;;;18.81;77.21
49104;BME280;34915;52.926;11.116;2023-07-29T02:27:04;100528.97;;;18.79;76.63
49104;BME280;34915;52.926;11.116;2023-07-29T02:29:29;100519.84;;;18.79;77.09
49104;BME280;34915;52.926;11.116;2023-07-29T02:31:55;100513.50;;;18.78;77.47
49104;BME280;34915;52.926;11.116;2023-07-29T02:34:21;100516.28;;;18.78;77.00
49104;BME280;34915;52.926;11.116;2023-07-29T02:36:47;100516.38;;;18.75;77.54
49104;BME280;34915;52.926;11.116;2023-07-29T02:39:12;100516.38;;;18.75;77.29
49104;BME280;34915;52.926;11.116;2023-07-29T02:41:38;100525.16;;;18.73;77.75
49104;BME280;34915;52.926;11.116;2023-07-29T02:44:04;100526.72;;;18.74;77.05
49104;BME280;34915;52.926;11.116;2023-07-29T02:46:30;100530.72;;;18.73;77.15
49104;BME280;34915;52.926;11.116;2023-07-29T02:48:56;100528.47;;;18.68;77.36
49104;BME280;34915;52.926;11.116;2023-07-29T02:51:21;100520.91;;;18.69;77.44
49104;BME280;34915;52.926;11.116;2023-07-29T02:53:47;100533.25;;;18.68;77.25
49104;BME280;34915;52.926;11.116;2023-07-29T02:56:12;100531.16;;;18.72;77.64
49104;BME280;34915;52.926;11.116;2023-07-29T02:58:38;100522.81;;;18.72;77.22
49104;BME280;34915;52.926;11.116;2023-07-29T03:01:05;100528.28;;;18.75;77.26
49104;BME280;34915;52.926;11.116;2023-07-29T03:03:32;100527.94;;;18.73;77.50
49104;BME280;34915;52.926;11.116;2023-07-29T03:06:08;100519.25;;;18.71;76.93
49104;BME280;34915;52.926;11.116;2023-07-29T03:08:35;100520.81;;;18.72;76.68
49104;BME280;34915;52.926;11.116;2023-07-29T03:11:08;100524.47;;;18.69;77.55
49104;BME280;34915;52.926;11.116;2023-07-29T03:13:34;100514.91;;;18.70;76.96
49104;BME280;34915;52.926;11.116;2023-07-29T03:18:35;100512.41;;;18.59;77.04
49104;BME280;34915;52.926;11.116;2023-07-29T03:21:01;100517.72;;;18.54;77.38
49104;BME280;34915;52.926;11.116;2023-07-29T03:23:29;100514.06;;;18.57;76.94
49104;BME280;34915;52.926;11.116;2023-07-29T03:25:55;100512.50;;;18.56;76.98
49104;BME280;34915;52.926;11.116;2023-07-29T03:28:24;100504.16;;;18.56;77.75
49104;BME280;34915;52.926;11.116;2023-07-29T03:30:50;100502.59;;;18.55;76.00
49104;BME280;34915;52.926;11.116;2023-07-29T03:33:16;100507.88;;;18.49;77.49
49104;BME280;34915;52.926;11.116;2023-07-29T03:35:41;100505.09;;;18.49;77.27
49104;BME280;34915;52.926;11.116;2023-07-29T03:38:10;100497.56;;;18.50;77.25
49104;BME280;34915;52.926;11.116;2023-07-29T03:40:36;100497.63;;;18.46;77.02
49104;BME280;34915;52.926;11.116;2023-07-29T03:43:02;100492.88;;;18.47;77.29
49104;BME280;34915;52.926;11.116;2023-07-29T03:45:27;100488.81;;;18.51;76.93
49104;BME280;34915;52.926;11.116;2023-07-29T03:47:53;100482.38;;;18.38;77.11
49104;BME280;34915;52.926;11.116;2023-07-29T03:50:19;100484.28;;;18.41;77.03
49104;BME280;34915;52.926;11.116;2023-07-29T03:52:44;100487.06;;;18.41;76.95
49104;BME280;34915;52.926;11.116;2023-07-29T03:55:10;100493.31;;;18.45;77.80
49104;BME280;34915;52.926;11.116;2023-07-29T03:57:37;100499.28;;;18.44;77.32
49104;BME280;34915;52.926;11.116;2023-07-29T04:00:02;100504.84;;;18.44;77.37
49104;BME280;34915;52.926;11.116;2023-07-29T04:02:28;100505.38;;;18.55;77.36
49104;BME280;34915;52.926;11.116;2023-07-29T04:04:54;100505.47;;;18.51;77.19
49104;BME280;34915;52.926;11.116;2023-07-29T04:07:19;100494.34;;;18.51;77.33
49104;BME280;34915;52.926;11.116;2023-07-29T04:09:45;100504.16;;;18.56;77.53
49104;BME280;34915;52.926;11.116;2023-07-29T04:12:10;100507.81;;;18.53;77.41
49104;BME280;34915;52.926;11.116;2023-07-29T04:14:36;100509.72;;;18.56;78.28
49104;BME280;34915;52.926;11.116;2023-07-29T04:17:02;100503.56;;;18.64;77.88
49104;BME280;34915;52.926;11.116;2023-07-29T04:19:27;100500.00;;;18.64;77.53
49104;BME280;34915;52.926;11.116;2023-07-29T04:21:53;100486.16;;;18.60;76.89
49104;BME280;34915;52.926;11.116;2023-07-29T04:24:18;100492.94;;;18.59;77.88
49104;BME280;34915;52.926;11.116;2023-07-29T04:26:45;100496.44;;;18.63;77.64
49104;BME280;34915;52.926;11.116;2023-07-29T04:29:11;100492.34;;;18.68;77.66
49104;BME280;34915;52.926;11.116;2023-07-29T04:31:37;100495.47;;;18.70;77.59
49104;BME280;34915;52.926;11.116;2023-07-29T04:34:04;100490.81;;;18.80;77.72
49104;BME280;34915;52.926;11.116;2023-07-29T04:36:30;100488.72;;;19.64;74.27
49104;BME280;34915;52.926;11.116;2023-07-29T04:38:56;100488.03;;;18.80;77.71
49104;BME280;34915;52.926;11.116;2023-07-29T04:41:21;100497.47;;;18.70;77.97
49104;BME280;34915;52.926;11.116;2023-07-29T04:43:47;100493.59;;;19.21;76.74
49104;BME280;34915;52.926;11.116;2023-07-29T04:46:15;100489.69;;;19.19;76.89
49104;BME280;34915;52.926;11.116;2023-07-29T04:48:40;100491.28;;;18.91;77.41
49104;BME280;34915;52.926;11.116;2023-07-29T04:51:06;100484.75;;;18.98;77.73
49104;BME280;34915;52.926;11.116;2023-07-29T04:53:32;100485.41;;;19.02;77.90
49104;BME280;34915;52.926;11.116;2023-07-29T04:55:57;100486.88;;;19.06;77.57
49104;BME280;34915;52.926;11.116;2023-07-29T04:58:23;100489.91;;;19.12;77.38
49104;BME280;34915;52.926;11.116;2023-07-29T05:00:48;100487.81;;;19.16;77.31
49104;BME280;34915;52.926;11.116;2023-07-29T05:03:14;100481.78;;;19.17;76.87
49104;BME280;34915;52.926;11.116;2023-07-29T05:05:40;100479.56;;;19.25;77.35
49104;BME280;34915;52.926;11.116;2023-07-29T05:08:05;100482.47;;;19.21;77.26
49104;BME280;34915;52.926;11.116;2023-07-29T05:10:31;100480.69;;;19.27;77.37
49104;BME280;34915;52.926;11.116;2023-07-29T05:12:56;100487.81;;;19.28;77.38
49104;BME280;34915;52.926;11.116;2023-07-29T05:15:22;100480.56;;;19.31;77.58
49104;BME280;34915;52.926;11.116;2023-07-29T05:17:47;100480.69;;;19.40;77.51
49104;BME280;34915;52.926;11.116;2023-07-29T05:20:13;100493.50;;;19.38;77.27
49104;BME280;34915;52.926;11.116;2023-07-29T05:22:38;100486.16;;;19.31;77.99
49104;BME280;34915;52.926;11.116;2023-07-29T05:25:04;100489.25;;;19.46;77.48
49104;BME280;34915;52.926;11.116;2023-07-29T05:27:30;100484.28;;;19.53;77.66
49104;BME280;34915;52.926;11.116;2023-07-29T05:29:55;100486.94;;;19.44;77.71
49104;BME280;34915;52.926;11.116;2023-07-29T05:32:21;100477.69;;;19.47;77.44
49104;BME280;34915;52.926;11.116;2023-07-29T05:34:47;100473.16;;;19.53;77.23
49104;BME280;34915;52.926;11.116;2023-07-29T05:37:12;100467.34;;;19.61;77.64
49104;BME280;34915;52.926;11.116;2023-07-29T05:39:38;100463.13;;;19.56;77.35
49104;BME280;34915;52.926;11.116;2023-07-29T05:42:03;100464.34;;;19.55;77.82
49104;BME280;34915;52.926;11.116;2023-07-29T05:44:29;100475.06;;;19.69;76.97
49104;BME280;34915;52.926;11.116;2023-07-29T05:46:56;100477.38;;;19.71;77.16
49104;BME280;34915;52.926;11.116;2023-07-29T05:49:21;100470.81;;;19.65;77.31
49104;BME280;34915;52.926;11.116;2023-07-29T05:51:47;100466.47;;;19.64;77.72
49104;BME280;34915;52.926;11.116;2023-07-29T05:54:12;100471.56;;;19.65;77.58
49104;BME280;34915;52.926;11.116;2023-07-29T05:56:38;100476.28;;;19.68;77.34
49104;BME280;34915;52.926;11.116;2023-07-29T05:59:03;100462.44;;;19.65;77.72
49104;BME280;34915;52.926;11.116;2023-07-29T06:01:29;100471.03;;;19.70;77.85
49104;BME280;34915;52.926;11.116;2023-07-29T06:03:54;100467.47;;;19.70;77.59
49104;BME280;34915;52.926;11.116;2023-07-29T06:06:20;100481.28;;;19.73;77.79
49104;BME280;34915;52.926;11.116;2023-07-29T06:08:45;100474.81;;;19.76;77.48
49104;BME280;34915;52.926;11.116;2023-07-29T06:11:11;100478.84;;;19.75;77.50
49104;BME280;34915;52.926;11.116;2023-07-29T06:13:36;100479.16;;;19.77;77.51
49104;BME280;34915;52.926;11.116;2023-07-29T06:16:02;100480.72;;;19.78;77.27
49104;BME280;34915;52.926;11.116;2023-07-29T06:18:27;100476.59;;;19.83;77.34
49104;BME280;34915;52.926;11.116;2023-07-29T06:20:53;100481.28;;;19.86;77.67
49104;BME280;34915;52.926;11.116;2023-07-29T06:23:19;100469.56;;;19.91;77.41
49104;BME280;34915;52.926;11.116;2023-07-29T06:25:44;100471.31;;;19.98;77.46
49104;BME280;34915;52.926;11.116;2023-07-29T06:28:10;100459.63;;;20.03;77.02
49104;BME280;34915;52.926;11.116;2023-07-29T06:30:35;100470.50;;;20.10;76.94
49104;BME280;34915;52.926;11.116;2023-07-29T06:33:03;100476.41;;;20.12;76.87
49104;BME280;34915;52.926;11.116;2023-07-29T06:35:29;100462.16;;;20.10;76.65
49104;BME280;34915;52.926;11.116;2023-07-29T06:37:54;100459.16;;;20.04;77.15
49104;BME280;34915;52.926;11.116;2023-07-29T06:40:20;100469.53;;;20.04;77.21
49104;BME280;34915;52.926;11.116;2023-07-29T06:42:46;100465.63;;;20.01;77.28
49104;BME280;34915;52.926;11.116;2023-07-29T06:45:11;100462.53;;;19.99;77.06
49104;BME280;34915;52.926;11.116;2023-07-29T06:47:37;100465.53;;;19.92;77.35
49104;BME280;34915;52.926;11.116;2023-07-29T06:50:03;100475.91;;;19.92;77.85
49104;BME280;34915;52.926;11.116;2023-07-29T06:52:29;100479.03;;;19.94;77.81
49104;BME280;34915;52.926;11.116;2023-07-29T06:54:55;100477.88;;;20.04;77.16
49104;BME280;34915;52.926;11.116;2023-07-29T06:57:20;100467.31;;;19.99;77.50
49104;BME280;34915;52.926;11.116;2023-07-29T06:59:46;100470.88;;;19.99;77.32
49104;BME280;34915;52.926;11.116;2023-07-29T07:02:11;100478.78;;;20.01;77.38
49104;BME280;34915;52.926;11.116;2023-07-29T07:04:37;100474.00;;;20.01;77.54
49104;BME280;34915;52.926;11.116;2023-07-29T07:07:02;100470.44;;;20.01;77.47
49104;BME280;34915;52.926;11.116;2023-07-29T07:09:28;100472.88;;;19.99;77.48
49104;BME280;34915;52.926;11.116;2023-07-29T07:11:54;100468.53;;;19.98;77.79
49104;BME280;34915;52.926;11.116;2023-07-29T07:14:19;100482.03;;;19.99;77.40
49104;BME280;34915;52.926;11.116;2023-07-29T07:16:45;100482.47;;;19.98;77.63
49104;BME280;34915;52.926;11.116;2023-07-29T07:19:10;100496.06;;;19.96;77.72
49104;BME280;34915;52.926;11.116;2023-07-29T07:21:39;100489.59;;;19.99;76.77
49104;BME280;34915;52.926;11.116;2023-07-29T07:24:05;100495.81;;;20.03;76.91
49104;BME280;34915;52.926;11.116;2023-07-29T07:26:31;100501.16;;;20.10;76.86
49104;BME280;34915;52.926;11.116;2023-07-29T07:28:56;100506.44;;;19.95;77.35
49104;BME280;34915;52.926;11.116;2023-07-29T07:31:22;100494.97;;;19.93;76.97
49104;BME280;34915;52.926;11.116;2023-07-29T07:33:48;100501.44;;;19.90;77.41
49104;BME280;34915;52.926;11.116;2023-07-29T07:36:13;100495.53;;;19.88;77.13
49104;BME280;34915;52.926;11.116;2023-07-29T07:38:39;100506.66;;;19.88;77.34
49104;BME280;34915;52.926;11.116;2023-07-29T07:41:04;100510.00;;;19.83;77.21
49104;BME280;34915;52.926;11.116;2023-07-29T07:43:30;100516.34;;;19.83;77.50
49104;BME280;34915;52.926;11.116;2023-07-29T07:46:00;100509.00;;;19.89;77.35
49104;BME280;34915;52.926;11.116;2023-07-29T07:48:27;100506.56;;;19.79;77.40
49104;BME280;34915;52.926;11.116;2023-07-29T07:50:53;100507.88;;;19.87;77.11
49104;BME280;34915;52.926;11.116;2023-07-29T07:53:18;100501.31;;;19.81;77.44
49104;BME280;34915;52.926;11.116;2023-07-29T07:55:45;100504.00;;;19.84;77.25
49104;BME280;34915;52.926;11.116;2023-07-29T07:58:10;100485.06;;;19.79;77.32
49104;BME280;34915;52.926;11.116;2023-07-29T08:00:36;100477.16;;;19.78;77.18
49104;BME280;34915;52.926;11.116;2023-07-29T08:03:02;100475.72;;;19.73;77.45
49104;BME280;34915;52.926;11.116;2023-07-29T08:05:27;100462.13;;;19.75;76.89
49104;BME280;34915;52.926;11.116;2023-07-29T08:07:53;100458.22;;;19.73;77.07
49104;BME280;34915;52.926;11.116;2023-07-29T08:10:18;100456.34;;;19.70;77.25
49104;BME280;34915;52.926;11.116;2023-07-29T08:12:47;100470.25;;;19.70;77.13
49104;BME280;34915;52.926;11.116;2023-07-29T08:15:12;100474.38;;;19.65;77.27
49104;BME280;34915;52.926;11.116;2023-07-29T08:17:38;100477.25;;;19.62;76.96
49104;BME280;34915;52.926;11.116;2023-07-29T08:20:04;100491.94;;;19.49;77.37
49104;BME280;34915;52.926;11.116;2023-07-29T08:22:30;100504.44;;;19.57;77.11
49104;BME280;34915;52.926;11.116;2023-07-29T08:24:55;100497.41;;;19.53;77.47
49104;BME280;34915;52.926;11.116;2023-07-29T08:27:21;100486.63;;;19.55;77.11
49104;BME280;34915;52.926;11.116;2023-07-29T08:29:46;100472.47;;;19.62;77.22
49104;BME280;34915;52.926;11.116;2023-07-29T08:32:12;100469.59;;;19.66;77.25
49104;BME280;34915;52.926;11.116;2023-07-29T08:34:38;100474.28;;;19.69;77.15
49104;BME280;34915;52.926;11.116;2023-07-29T08:37:03;100482.28;;;19.67;77.13
49104;BME280;34915;52.926;11.116;2023-07-29T08:39:29;100486.63;;;19.68;77.31
49104;BME280;34915;52.926;11.116;2023-07-29T08:42:08;100488.97;;;19.69;77.30
49104;BME280;34915;52.926;11.116;2023-07-29T08:44:42;100492.75;;;19.63;77.40
49104;BME280;34915;52.926;11.116;2023-07-29T08:47:08;100484.84;;;19.74;77.75
49104;BME280;34915;52.926;11.116;2023-07-29T08:49:35;100478.28;;;19.80;77.28
49104;BME280;34915;52.926;11.116;2023-07-29T08:52:02;100474.34;;;19.90;77.50
49104;BME280;34915;52.926;11.116;2023-07-29T08:54:31;100471.22;;;20.01;77.29
49104;BME280;34915;52.926;11.116;2023-07-29T08:56:57;100481.72;;;19.84;77.38
49104;BME280;34915;52.926;11.116;2023-07-29T08:59:23;100468.13;;;19.86;77.54
49104;BME280;34915;52.926;11.116;2023-07-29T09:01:50;100471.44;;;19.94;77.37
49104;BME280;34915;52.926;11.116;2023-07-29T09:04:18;100469.53;;;20.04;77.13
49104;BME280;34915;52.926;11.116;2023-07-29T09:06:44;100477.00;;;20.07;77.39
49104;BME280;34915;52.926;11.116;2023-07-29T09:09:12;100469.63;;;20.13;77.15
49104;BME280;34915;52.926;11.116;2023-07-29T09:11:37;100454.09;;;20.25;77.06
49104;BME280;34915;52.926;11.116;2023-07-29T09:14:03;100451.63;;;20.39;77.79
49104;BME280;34915;52.926;11.116;2023-07-29T09:16:28;100439.91;;;20.44;77.62
49104;BME280;34915;52.926;11.116;2023-07-29T09:18:54;100445.59;;;20.41;77.23
49104;BME280;34915;52.926;11.116;2023-07-29T09:21:24;100448.97;;;20.58;77.27
49104;BME280;34915;52.926;11.116;2023-07-29T09:23:54;100452.53;;;20.58;77.21
49104;BME280;34915;52.926;11.116;2023-07-29T09:26:25;100438.34;;;20.65;77.36
49104;BME280;34915;52.926;11.116;2023-07-29T09:28:53;100420.19;;;20.61;77.27
49104;BME280;34915;52.926;11.116;2023-07-29T09:31:23;100418.69;;;20.69;77.85
49104;BME280;34915;52.926;11.116;2023-07-29T09:33:50;100428.47;;;20.73;77.39
49104;BME280;34915;52.926;11.116;2023-07-29T09:36:16;100425.31;;;20.84;77.17
49104;BME280;34915;52.926;11.116;2023-07-29T09:38:42;100437.34;;;21.03;76.75
49104;BME280;34915;52.926;11.116;2023-07-29T09:41:11;100436.41;;;21.06;76.44
49104;BME280;34915;52.926;11.116;2023-07-29T09:43:37;100440.25;;;20.99;75.66
49104;BME280;34915;52.926;11.116;2023-07-29T09:46:04;100446.94;;;21.02;76.58
49104;BME280;34915;52.926;11.116;2023-07-29T09:48:37;100439.72;;;21.13;76.82
49104;BME280;34915;52.926;11.116;2023-07-29T09:51:10;100441.06;;;21.31;76.21
49104;BME280;34915;52.926;11.116;2023-07-29T09:53:42;100442.34;;;21.39;76.83
49104;BME280;34915;52.926;11.116;2023-07-29T09:56:10;100440.34;;;21.39;76.05
49104;BME280;34915;52.926;11.116;2023-07-29T09:58:37;100443.00;;;21.43;76.02
49104;BME280;34915;52.926;11.116;2023-07-29T10:01:07;100439.97;;;21.68;76.21
49104;BME280;34915;52.926;11.116;2023-07-29T10:03:36;100436.09;;;21.75;75.25
49104;BME280;34915;52.926;11.116;2023-07-29T10:06:03;100434.38;;;21.77;74.99
49104;BME280;34915;52.926;11.116;2023-07-29T10:08:31;100442.28;;;21.70;73.69
49104;BME280;34915;52.926;11.116;2023-07-29T10:10:59;100450.13;;;21.44;74.20
49104;BME280;34915;52.926;11.116;2023-07-29T10:13:26;100453.75;;;21.63;75.85
49104;BME280;34915;52.926;11.116;2023-07-29T10:15:53;100441.94;;;21.59;74.38
49104;BME280;34915;52.926;11.116;2023-07-29T10:18:20;100429.69;;;21.56;74.89
49104;BME280;34915;52.926;11.116;2023-07-29T10:20:49;100429.56;;;21.69;75.21
49104;BME280;34915;52.926;11.116;2023-07-29T10:23:17;100439.19;;;21.77;75.55
49104;BME280;34915;52.926;11.116;2023-07-29T10:25:47;100426.44;;;21.58;74.32
49104;BME280;34915;52.926;11.116;2023-07-29T10:28:15;100416.63;;;21.44;75.86
49104;BME280;34915;52.926;11.116;2023-07-29T10:30:41;100419.72;;;21.15;73.84
49104;BME280;34915;52.926;11.116;2023-07-29T10:33:07;100424.00;;;21.29;76.21
49104;BME280;34915;52.926;11.116;2023-07-29T10:35:33;100410.59;;;21.45;74.86
49104;BME280;34915;52.926;11.116;2023-07-29T10:37:59;100408.88;;;21.17;73.04
49104;BME280;34915;52.926;11.116;2023-07-29T10:40:25;100412.81;;;21.29;73.81
49104;BME280;34915;52.926;11.116;2023-07-29T10:43:02;100403.16;;;21.21;74.04
49104;BME280;34915;52.926;11.116;2023-07-29T10:45:37;100400.03;;;21.19;75.07
49104;BME280;34915;52.926;11.116;2023-07-29T10:48:13;100407.88;;;21.02;76.13
49104;BME280;34915;52.926;11.116;2023-07-29T10:51:23;100406.78;;;20.99;76.48
49104;BME280;34915;52.926;11.116;2023-07-29T10:54:13;100404.81;;;21.09;75.01
49104;BME280;34915;52.926;11.116;2023-07-29T10:56:47;100405.06;;;21.24;76.71
49104;BME280;34915;52.926;11.116;2023-07-29T11:01:40;100389.81;;;21.15;75.53
49104;BME280;34915;52.926;11.116;2023-07-29T11:12:41;100364.84;;;21.21;75.87
49104;BME280;34915;52.926;11.116;2023-07-29T11:17:39;100369.34;;;21.19;74.50
49104;BME280;34915;52.926;11.116;2023-07-29T11:20:07;100372.81;;;21.32;75.39
49104;BME280;34915;52.926;11.116;2023-07-29T11:22:33;100373.91;;;21.34;75.28
49104;BME280;34915;52.926;11.116;2023-07-29T11:24:59;100384.69;;;21.54;75.32
49104;BME280;34915;52.926;11.116;2023-07-29T11:27:25;100389.53;;;21.72;75.79
49104;BME280;34915;52.926;11.116;2023-07-29T11:29:56;100390.94;;;21.86;73.94
49104;BME280;34915;52.926;11.116;2023-07-29T11:32:22;100404.75;;;21.71;71.66
49104;BME280;34915;52.926;11.116;2023-07-29T11:34:48;100410.34;;;21.80;73.44
49104;BME280;34915;52.926;11.116;2023-07-29T11:37:13;100411.56;;;21.79;72.84
49104;BME280;34915;52.926;11.116;2023-07-29T11:39:41;100407.25;;;21.87;72.59
49104;BME280;34915;52.926;11.116;2023-07-29T11:42:11;100396.22;;;21.93;74.24
49104;BME280;34915;52.926;11.116;2023-07-29T11:44:37;100386.31;;;22.01;70.82
49104;BME280;34915;52.926;11.116;2023-07-29T11:47:10;100384.94;;;22.24;73.70
49104;BME280;34915;52.926;11.116;2023-07-29T11:49:37;100391.63;;;22.26;71.14
49104;BME280;34915;52.926;11.116;2023-07-29T11:52:04;100397.53;;;22.28;70.74
49104;BME280;34915;52.926;11.116;2023-07-29T11:54:31;100400.63;;;22.21;70.21
49104;BME280;34915;52.926;11.116;2023-07-29T11:56:56;100399.84;;;22.12;71.20
49104;BME280;34915;52.926;11.116;2023-07-29T11:59:23;100399.03;;;21.93;73.79
49104;BME280;34915;52.926;11.116;2023-07-29T12:01:49;100412.97;;;21.74;71.67
49104;BME280;34915;52.926;11.116;2023-07-29T12:04:14;100447.69;;;21.55;70.39
49104;BME280;34915;52.926;11.116;2023-07-29T12:06:41;100421.19;;;20.76;65.37
49104;BME280;34915;52.926;11.116;2023-07-29T12:09:07;100421.69;;;20.52;70.15
49104;BME280;34915;52.926;11.116;2023-07-29T12:11:34;100453.78;;;19.75;67.78
49104;BME280;34915;52.926;11.116;2023-07-29T12:14:00;100477.28;;;19.07;71.24
49104;BME280;34915;52.926;11.116;2023-07-29T12:16:28;100508.84;;;18.43;71.69
49104;BME280;34915;52.926;11.116;2023-07-29T12:19:00;100484.75;;;18.23;75.46
49104;BME280;34915;52.926;11.116;2023-07-29T12:21:28;100468.50;;;18.38;75.86
49104;BME280;34915;52.926;11.116;2023-07-29T12:23:54;100461.81;;;18.36;76.97
49104;BME280;34915;52.926;11.116;2023-07-29T12:26:20;100467.63;;;18.41;75.40
49104;BME280;34915;52.926;11.116;2023-07-29T12:28:46;100466.63;;;18.48;75.99
49104;BME280;34915;52.926;11.116;2023-07-29T12:31:13;100452.47;;;18.58;76.99
49104;BME280;34915;52.926;11.116;2023-07-29T12:33:38;100455.09;;;18.66;76.81
49104;BME280;34915;52.926;11.116;2023-07-29T12:36:04;100451.00;;;18.83;77.67
49104;BME280;34915;52.926;11.116;2023-07-29T12:38:33;100447.69;;;18.88;77.09
49104;BME280;34915;52.926;11.116;2023-07-29T12:40:59;100440.50;;;19.16;77.73
49104;BME280;34915;52.926;11.116;2023-07-29T12:43:25;100436.19;;;19.53;78.40
49104;BME280;34915;52.926;11.116;2023-07-29T12:45:51;100433.84;;;19.77;77.66
49104;BME280;34915;52.926;11.116;2023-07-29T12:48:17;100431.00;;;19.89;77.50
49104;BME280;34915;52.926;11.116;2023-07-29T12:50:43;100428.66;;;20.01;76.99
49104;BME280;34915;52.926;11.116;2023-07-29T12:53:09;100420.31;;;20.22;77.41
49104;BME280;34915;52.926;11.116;2023-07-29T12:55:38;100413.75;;;20.29;76.56
49104;BME280;34915;52.926;11.116;2023-07-29T12:58:04;100418.06;;;20.43;77.24
49104;BME280;34915;52.926;11.116;2023-07-29T13:00:30;100412.84;;;20.54;75.99
49104;BME280;34915;52.926;11.116;2023-07-29T13:02:56;100410.97;;;20.51;74.69